Time;durP1;ratioP1;P1;durP2;ratioP2;P2;SDS_P1;SDS_P2;PMS_P1;PMS_P2;Temp;Humidity;BMP_temperature;BMP_pressure;BME280_temperature;BME280_humidity;BME280_pressure;Samples;Min_cycle;Max_cycle;Signal;HPM_P1;HPM_P2
2023/12/09 00:00:05;;;;;;;41.13;13.83;;;;;;;5.63;100.00;100917.63;5330022;28;20032;-82
2023/12/09 00:02:36;;;;;;;39.73;15.37;;;;;;;5.61;100.00;100901.22;5332977;28;20391;-82
2023/12/09 00:05:08;;;;;;;43.33;14.57;;;;;;;5.62;100.00;100902.97;5329904;28;20039;-82
2023/12/09 00:07:39;;;;;;;43.20;14.80;;;;;;;5.61;100.00;100909.00;5329623;28;20101;-82
2023/12/09 00:10:10;;;;;;;37.67;13.43;;;;;;;5.55;100.00;100902.03;5330920;28;20084;-82
2023/12/09 00:12:42;;;;;;;40.43;12.73;;;;;;;5.55;100.00;100898.59;5313898;28;20106;-80
2023/12/09 00:15:13;;;;;;;45.93;14.33;;;;;;;5.53;100.00;100895.97;5330920;28;20088;-81
2023/12/09 00:17:45;;;;;;;38.27;13.23;;;;;;;5.55;100.00;100902.03;5311531;28;20046;-80
2023/12/09 00:20:16;;;;;;;43.47;14.10;;;;;;;5.48;100.00;100908.00;5329760;28;20077;-82
2023/12/09 00:22:48;;;;;;;47.87;15.47;;;;;;;5.48;100.00;100911.44;5329931;28;20455;-82
2023/12/09 00:25:19;;;;;;;35.93;14.93;;;;;;;5.46;100.00;100908.00;5329756;28;20028;-82
2023/12/09 00:27:50;;;;;;;36.10;14.07;;;;;;;5.45;100.00;100908.81;5329746;28;20023;-83
2023/12/09 00:30:22;;;;;;;42.47;14.03;;;;;;;5.52;100.00;100914.94;5329748;28;20036;-83
2023/12/09 00:32:54;;;;;;;47.10;12.77;;;;;;;5.53;100.00;100914.09;5329759;28;20031;-83
2023/12/09 00:35:25;;;;;;;38.33;14.85;;;;;;;5.57;100.00;100908.09;5329209;28;20074;-82
2023/12/09 00:37:56;;;;;;;36.37;13.60;;;;;;;5.58;100.00;100920.16;5329598;28;20035;-82
2023/12/09 00:40:28;;;;;;;37.40;13.37;;;;;;;5.62;100.00;100905.56;5329662;28;20052;-82
2023/12/09 00:42:59;;;;;;;35.03;14.40;;;;;;;5.62;100.00;100902.97;5329448;28;20046;-82
2023/12/09 00:45:31;;;;;;;44.97;13.80;;;;;;;5.62;100.00;100903.84;5329212;28;20065;-83
2023/12/09 00:48:02;;;;;;;35.67;14.00;;;;;;;5.61;100.00;100906.41;5329449;28;20032;-83
2023/12/09 00:50:33;;;;;;;46.00;15.17;;;;;;;5.59;100.00;100903.81;5328980;28;20024;-83
2023/12/09 00:53:05;;;;;;;34.50;13.23;;;;;;;5.52;100.00;100914.94;5327968;28;20043;-82
2023/12/09 00:55:36;;;;;;;43.87;14.57;;;;;;;5.54;100.00;100907.19;5329106;28;20031;-82
2023/12/09 00:58:08;;;;;;;51.40;14.83;;;;;;;5.57;100.00;100894.28;5329582;28;20035;-82
2023/12/09 01:00:39;;;;;;;40.77;13.77;;;;;;;5.51;100.00;100891.66;5294328;28;20054;-84
2023/12/09 01:03:10;;;;;;;42.40;14.80;;;;;;;5.42;100.00;100892.44;5328889;28;20301;-83
2023/12/09 01:05:42;;;;;;;42.10;14.57;;;;;;;5.37;100.00;100896.69;5329350;28;20118;-82
2023/12/09 01:08:13;;;;;;;37.47;13.73;;;;;;;5.35;100.00;100891.50;5329207;28;20023;-82
2023/12/09 01:10:44;;;;;;;34.37;13.90;;;;;;;5.39;100.00;100900.16;5329435;28;20032;-83
2023/12/09 01:13:16;;;;;;;40.67;14.30;;;;;;;5.36;100.00;100892.34;5329382;28;20093;-83
2023/12/09 01:15:47;;;;;;;39.50;14.43;;;;;;;5.33;100.00;100881.97;5329216;28;20538;-82
2023/12/09 01:18:18;;;;;;;37.60;13.30;;;;;;;5.36;100.00;100888.06;5329481;28;20069;-83
2023/12/09 01:20:50;;;;;;;44.07;13.93;;;;;;;5.33;100.00;100875.13;5339893;28;20131;-83
2023/12/09 01:23:21;;;;;;;31.67;12.33;;;;;;;5.28;100.00;100879.34;5347588;28;20071;-83
2023/12/09 01:25:52;;;;;;;41.63;13.10;;;;;;;5.21;100.00;100893.94;5344862;28;20039;-81
2023/12/09 01:28:24;;;;;;;45.60;13.77;;;;;;;5.14;100.00;100886.13;5347816;28;20178;-82
2023/12/09 01:30:55;;;;;;;44.03;14.23;;;;;;;5.11;100.00;100890.38;5349736;28;20039;-81
2023/12/09 01:33:26;;;;;;;38.30;13.53;;;;;;;5.13;100.00;100886.94;5348986;28;20027;-82
2023/12/09 01:35:58;;;;;;;42.80;13.53;;;;;;;5.10;100.00;100898.09;5334204;28;20474;-83
2023/12/09 01:38:30;;;;;;;29.70;14.07;;;;;;;5.10;100.00;100887.78;5332787;28;20122;-83
2023/12/09 01:41:01;;;;;;;38.83;14.20;;;;;;;5.03;100.00;100893.72;5328010;28;20622;-83
2023/12/09 01:43:34;;;;;;;43.97;15.77;;;;;;;4.96;100.00;100886.75;5328522;28;20448;-83
2023/12/09 01:46:09;;;;;;;49.30;15.10;;;;;;;5.01;100.00;100878.22;5328574;28;20031;-83
2023/12/09 01:48:41;;;;;;;40.05;15.60;;;;;;;5.02;100.00;100872.19;5329085;28;20035;-83
2023/12/09 01:51:13;;;;;;;46.63;16.17;;;;;;;4.98;100.00;100865.25;5328469;28;20039;-83
2023/12/09 01:53:45;;;;;;;42.50;16.23;;;;;;;4.96;100.00;100859.22;5309682;28;20370;-84
2023/12/09 01:56:17;;;;;;;53.20;15.87;;;;;;;4.93;100.00;100848.84;5328108;28;20161;-82
2023/12/09 01:58:49;;;;;;;53.95;15.95;;;;;;;4.93;100.00;100851.44;5328036;28;20028;-83
2023/12/09 02:01:20;;;;;;;46.47;16.37;;;;;;;4.89;100.00;100850.53;5309486;28;20032;-83
2023/12/09 02:03:53;;;;;;;46.20;14.43;;;;;;;4.89;100.00;100847.06;5328168;28;20027;-83
2023/12/09 02:06:24;;;;;;;;;;;;;;;4.81;100.00;100856.44;5328422;28;20036;-83
2023/12/09 02:08:56;;;;;;;44.92;16.83;;;;;;;4.80;100.00;100858.16;5327934;28;19924;-82
2023/12/09 02:11:39;;;;;;;42.63;16.17;;;;;;;4.80;100.00;100859.88;5327980;28;20035;-84
2023/12/09 02:14:18;;;;;;;62.40;17.20;;;;;;;4.77;100.00;100857.28;5310036;28;20115;-83
2023/12/09 02:16:56;;;;;;;40.03;14.25;;;;;;;4.80;100.00;100857.28;5327023;28;20032;-83
2023/12/09 02:19:28;;;;;;;45.13;14.50;;;;;;;4.69;100.00;100858.03;5310156;28;20069;-84
2023/12/09 02:22:05;;;;;;;44.50;16.73;;;;;;;4.72;100.00;100854.63;5327327;28;20429;-83
2023/12/09 02:24:36;;;;;;;53.08;17.67;;;;;;;4.73;100.00;100853.75;5327460;28;20035;-83
2023/12/09 02:27:12;;;;;;;46.37;15.53;;;;;;;4.70;100.00;100851.13;5328056;28;20053;-83
2023/12/09 02:29:59;;;;;;;48.42;15.20;;;;;;;4.63;100.00;100847.63;5329064;28;20486;-84
2023/12/09 02:32:34;;;;;;;37.45;14.25;;;;;;;4.68;100.00;100834.75;5334499;28;20019;-83
2023/12/09 02:35:08;;;;;;;48.40;16.85;;;;;;;4.69;100.00;100846.84;5335907;28;20131;-82
2023/12/09 02:37:41;;;;;;;52.92;16.88;;;;;;;4.68;100.00;100839.94;5335676;28;20451;-83
2023/12/09 02:40:13;;;;;;;;;;;;;;;4.62;100.00;100825.25;5337764;28;20047;-83
2023/12/09 02:42:46;;;;;;;45.80;16.02;;;;;;;4.65;100.00;100820.09;5338155;28;19911;-84
2023/12/09 02:45:21;;;;;;;42.45;16.20;;;;;;;4.64;100.00;100823.53;5334449;28;20425;-81
2023/12/09 02:47:52;;;;;;;46.30;15.00;;;;;;;4.65;100.00;100825.25;5335535;28;20135;-78
2023/12/09 02:50:24;;;;;;;48.87;16.00;;;;;;;4.65;100.00;100814.94;5340515;28;20027;-81
2023/12/09 02:52:55;;;;;;;56.87;17.33;;;;;;;4.67;100.00;100818.41;5322152;28;20024;-81
2023/12/09 02:55:27;;;;;;;48.30;16.07;;;;;;;4.73;100.00;100815.03;5327175;28;20387;-83
2023/12/09 02:57:58;;;;;;;52.77;15.83;;;;;;;4.68;100.00;100812.38;5327284;28;20035;-82
2023/12/09 03:00:29;;;;;;;45.60;14.77;;;;;;;4.66;100.00;100818.41;5327010;28;20031;-83
2023/12/09 03:03:01;;;;;;;46.07;18.07;;;;;;;4.70;100.00;100796.91;5326917;28;20497;-82
2023/12/09 03:05:32;;;;;;;44.33;15.77;;;;;;;4.63;100.00;100806.31;5326647;28;20035;-83
2023/12/09 03:08:03;;;;;;;45.83;13.87;;;;;;;4.67;100.00;100794.28;5308378;28;20031;-83
2023/12/09 03:10:35;;;;;;;43.07;14.87;;;;;;;4.66;100.00;100810.66;5308086;28;20171;-83
2023/12/09 03:13:06;;;;;;;44.33;14.10;;;;;;;4.69;100.00;100785.72;5326290;28;20130;-83
2023/12/09 03:15:37;;;;;;;46.40;15.50;;;;;;;4.70;100.00;100805.53;5325977;28;20101;-83
2023/12/09 03:18:09;;;;;;;49.83;15.37;;;;;;;4.67;100.00;100795.19;5327300;28;20084;-83
2023/12/09 03:20:40;;;;;;;45.90;14.33;;;;;;;4.70;100.00;100795.22;5326392;28;20027;-81
2023/12/09 03:23:11;;;;;;;39.33;15.27;;;;;;;4.74;100.00;100807.28;5326947;28;20023;-81
2023/12/09 03:25:43;;;;;;;38.73;13.53;;;;;;;4.75;100.00;100797.84;5326571;28;20027;-82
2023/12/09 03:28:14;;;;;;;44.67;14.77;;;;;;;4.70;100.00;100802.06;5325961;28;20523;-82
2023/12/09 03:30:46;;;;;;;36.17;13.37;;;;;;;4.67;100.00;100799.44;5326175;28;20034;-82
2023/12/09 03:33:17;;;;;;;39.60;12.83;;;;;;;4.60;100.00;100793.34;5326174;28;20070;-83
2023/12/09 03:35:48;;;;;;;35.93;13.43;;;;;;;4.65;100.00;100793.41;5326407;28;20061;-82
2023/12/09 03:38:20;;;;;;;41.40;13.40;;;;;;;4.62;100.00;100783.94;5326262;28;20063;-83
2023/12/09 03:40:51;;;;;;;52.30;14.30;;;;;;;4.62;100.00;100788.22;5310849;28;20051;-81
2023/12/09 03:43:22;;;;;;;54.97;14.87;;;;;;;4.62;100.00;100789.09;5327627;28;20036;-82
2023/12/09 03:45:54;;;;;;;49.77;13.40;;;;;;;4.62;100.00;100790.78;5327463;28;20120;-83
2023/12/09 03:48:26;;;;;;;39.93;12.33;;;;;;;4.57;100.00;100786.47;5308644;28;20020;-82
2023/12/09 03:50:57;;;;;;;36.13;13.63;;;;;;;4.55;100.00;100774.38;5326071;28;20031;-82
2023/12/09 03:53:28;;;;;;;36.63;13.47;;;;;;;4.56;100.00;100773.53;5326119;28;20032;-83
2023/12/09 03:56:00;;;;;;;49.57;13.23;;;;;;;4.55;100.00;100757.16;5326462;28;20160;-83
2023/12/09 03:58:31;;;;;;;34.23;11.67;;;;;;;4.54;100.00;100757.13;5325938;28;20028;-83
2023/12/09 04:01:03;;;;;;;47.50;12.83;;;;;;;4.54;100.00;100754.56;5326359;28;20415;-83
2023/12/09 04:03:35;;;;;;;36.60;13.60;;;;;;;4.59;100.00;100742.59;5326069;28;20042;-83
2023/12/09 04:06:06;;;;;;;58.93;13.37;;;;;;;4.60;100.00;100748.59;5325791;28;20036;-83
2023/12/09 04:08:38;;;;;;;44.67;11.80;;;;;;;4.59;100.00;100747.75;5325766;28;20103;-81
2023/12/09 04:11:09;;;;;;;39.77;12.50;;;;;;;4.58;100.00;100746.00;5326074;28;20060;-82
2023/12/09 04:13:40;;;;;;;39.77;12.40;;;;;;;4.57;100.00;100754.59;5307608;28;20092;-81
2023/12/09 04:16:12;;;;;;;42.37;14.03;;;;;;;4.60;100.00;100749.47;5325626;28;20510;-81
2023/12/09 04:18:43;;;;;;;34.00;12.93;;;;;;;4.61;100.00;100760.69;5325933;28;20031;-81
2023/12/09 04:21:14;;;;;;;35.93;12.03;;;;;;;4.62;100.00;100749.47;5326264;28;20036;-83
2023/12/09 04:23:46;;;;;;;42.50;12.60;;;;;;;4.63;100.00;100752.09;5326826;28;20039;-84
2023/12/09 04:26:17;;;;;;;48.97;14.67;;;;;;;4.63;100.00;100746.06;5332603;28;20065;-82
2023/12/09 04:28:48;;;;;;;40.20;12.50;;;;;;;4.64;100.00;100743.50;5335532;28;20035;-84
2023/12/09 04:31:20;;;;;;;39.03;12.00;;;;;;;4.63;100.00;100731.44;5338049;28;20047;-83
2023/12/09 04:33:51;;;;;;;37.37;11.13;;;;;;;4.54;100.00;100736.47;5345805;27;20038;-83
2023/12/09 04:36:24;;;;;;;40.60;10.97;;;;;;;4.51;100.00;100728.75;5345844;27;20027;-83
2023/12/09 04:38:55;;;;;;;38.42;12.40;;;;;;;4.53;100.00;100727.03;5330802;28;20053;-83
2023/12/09 04:41:27;;;;;;;32.40;11.53;;;;;;;4.45;100.00;100721.78;5329728;28;20131;-82
2023/12/09 04:43:58;;;;;;;37.87;11.37;;;;;;;4.44;100.00;100720.03;5329403;28;20039;-82
2023/12/09 04:46:30;;;;;;;40.47;10.97;;;;;;;4.42;100.00;100718.31;5329746;28;20031;-82
2023/12/09 04:49:01;;;;;;;38.83;9.70;;;;;;;4.46;100.00;100720.94;5329548;28;20020;-84
2023/12/09 04:51:32;;;;;;;28.80;10.87;;;;;;;4.47;100.00;100707.16;5311437;28;20080;-83
2023/12/09 04:54:04;;;;;;;34.83;10.43;;;;;;;4.45;100.00;100714.03;5330322;28;20055;-83
2023/12/09 04:56:35;;;;;;;27.57;9.30;;;;;;;4.45;100.00;100703.72;5331288;28;20478;-83
2023/12/09 04:59:06;;;;;;;35.10;10.53;;;;;;;4.47;100.00;100704.56;5329431;28;20023;-84
2023/12/09 05:01:38;;;;;;;44.83;11.90;;;;;;;4.47;100.00;100696.84;5328906;28;20119;-84
2023/12/09 05:04:09;;;;;;;48.17;10.83;;;;;;;4.45;100.00;100701.13;5329173;28;20035;-84
2023/12/09 05:06:40;;;;;;;39.83;12.13;;;;;;;4.44;100.00;100698.53;5328876;28;20063;-83
2023/12/09 05:09:13;;;;;;;33.83;10.77;;;;;;;4.48;100.00;100695.13;5329008;28;20141;-83
2023/12/09 05:11:44;;;;;;;35.88;11.88;;;;;;;4.52;100.00;100689.16;5329262;28;20324;-83
2023/12/09 05:14:15;;;;;;;39.73;11.37;;;;;;;4.52;100.00;100690.03;5329150;28;20024;-84
2023/12/09 05:16:47;;;;;;;38.73;11.27;;;;;;;4.53;100.00;100701.22;5328908;28;20040;-83
2023/12/09 05:19:18;;;;;;;49.33;13.37;;;;;;;4.46;100.00;100694.22;5329200;28;20035;-83
2023/12/09 05:21:49;;;;;;;35.33;8.90;;;;;;;4.49;100.00;100700.31;5329111;28;20032;-83
2023/12/09 05:24:21;;;;;;;35.33;11.47;;;;;;;4.52;100.00;100694.31;5329280;28;20031;-84
2023/12/09 05:26:52;;;;;;;35.63;10.30;;;;;;;4.51;100.00;100696.03;5328147;28;20028;-83
2023/12/09 05:29:24;;;;;;;39.57;11.37;;;;;;;4.49;100.00;100689.09;5328466;28;20023;-84
2023/12/09 05:31:55;;;;;;;35.10;8.90;;;;;;;4.47;100.00;100685.66;5328486;28;20035;-82
2023/12/09 05:34:26;;;;;;;35.67;10.27;;;;;;;4.46;100.00;100686.50;5328633;28;20035;-83
2023/12/09 05:36:58;;;;;;;32.63;9.47;;;;;;;4.47;100.00;100683.06;5328295;28;20049;-81
2023/12/09 05:39:29;;;;;;;40.40;9.90;;;;;;;4.51;100.00;100688.28;5328105;28;20028;-81
2023/12/09 05:42:00;;;;;;;35.33;10.40;;;;;;;4.53;100.00;100685.72;5328459;28;20069;-84
2023/12/09 05:44:32;;;;;;;34.07;10.23;;;;;;;4.52;100.00;100677.13;5328896;28;20218;-84
2023/12/09 05:47:03;;;;;;;30.60;8.90;;;;;;;4.56;100.00;100673.72;5309876;28;20085;-84
2023/12/09 05:49:35;;;;;;;33.73;9.30;;;;;;;4.58;100.00;100676.31;5328574;28;20035;-85
2023/12/09 05:52:06;;;;;;;28.03;9.33;;;;;;;4.55;100.00;100671.09;5328498;28;20032;-84
2023/12/09 05:54:37;;;;;;;30.67;8.73;;;;;;;4.57;100.00;100661.66;5328657;28;20031;-84
2023/12/09 05:57:09;;;;;;;31.53;8.70;;;;;;;4.58;100.00;100660.81;5328191;28;20057;-84
2023/12/09 05:59:40;;;;;;;35.00;10.07;;;;;;;4.55;100.00;100666.81;5329106;28;20081;-84
2023/12/09 06:02:11;;;;;;;33.20;9.40;;;;;;;4.54;100.00;100665.09;5329435;28;20030;-85
2023/12/09 06:04:43;;;;;;;27.97;8.70;;;;;;;4.54;100.00;100669.38;5343645;28;20059;-85
2023/12/09 06:07:14;;;;;;;29.03;8.23;;;;;;;4.52;100.00;100669.38;5346800;28;20024;-83
2023/12/09 06:09:45;;;;;;;31.87;9.17;;;;;;;4.55;100.00;100656.47;5322175;28;20123;-84
2023/12/09 06:12:17;;;;;;;32.07;9.17;;;;;;;4.57;100.00;100669.41;5328438;28;20028;-84
2023/12/09 06:14:48;;;;;;;26.80;8.60;;;;;;;4.51;100.00;100648.72;5328506;28;20059;-83
2023/12/09 06:17:19;;;;;;;27.00;8.80;;;;;;;4.48;100.00;100635.78;5328352;28;20030;-84
2023/12/09 06:19:51;;;;;;;29.00;10.47;;;;;;;4.48;100.00;100630.63;5327349;28;20023;-85
2023/12/09 06:22:22;;;;;;;30.47;9.50;;;;;;;4.45;100.00;100621.09;5327719;28;20413;-85
2023/12/09 06:24:54;;;;;;;31.10;8.40;;;;;;;4.44;100.00;100626.25;5327889;28;20382;-83
2023/12/09 06:27:25;;;;;;;24.63;7.10;;;;;;;4.36;100.00;100629.63;5327561;28;20374;-84
2023/12/09 06:29:56;;;;;;;29.40;8.73;;;;;;;4.38;100.00;100627.06;5327696;28;20032;-84
2023/12/09 06:32:28;;;;;;;33.63;8.30;;;;;;;4.37;100.00;100620.16;5328242;28;20035;-84
2023/12/09 06:34:59;;;;;;;28.60;7.73;;;;;;;4.34;100.00;100612.41;5330511;28;20035;-83
2023/12/09 06:37:30;;;;;;;29.80;9.00;;;;;;;4.40;100.00;100620.22;5335695;28;20134;-83
2023/12/09 06:40:02;;;;;;;35.20;9.20;;;;;;;4.40;100.00;100607.31;5318148;28;20028;-84
2023/12/09 06:42:34;;;;;;;29.27;8.73;;;;;;;4.38;100.00;100602.13;5338283;28;20059;-84
2023/12/09 06:45:06;;;;;;;30.50;8.45;;;;;;;4.41;100.00;100603.84;5328997;28;20406;-84
2023/12/09 06:47:38;;;;;;;33.20;9.17;;;;;;;4.41;100.00;100597.84;5328857;28;20028;-83
2023/12/09 06:50:09;;;;;;;31.43;9.00;;;;;;;4.45;100.00;100586.69;5329743;27;20027;-83
2023/12/09 06:52:40;;;;;;;34.80;8.60;;;;;;;4.45;100.00;100584.97;5329135;28;20035;-83
2023/12/09 06:55:12;;;;;;;33.97;8.53;;;;;;;4.46;100.00;100576.41;5332508;28;20028;-84
2023/12/09 06:57:43;;;;;;;31.70;8.23;;;;;;;4.41;100.00;100565.13;5332166;28;20032;-83
2023/12/09 07:00:15;;;;;;;32.70;9.47;;;;;;;4.37;100.00;100558.22;5331422;28;20153;-84
2023/12/09 07:02:47;;;;;;;26.90;7.17;;;;;;;4.38;100.00;100542.75;5338923;28;20032;-81
2023/12/09 07:05:18;;;;;;;33.03;8.93;;;;;;;4.38;100.00;100519.53;5339496;28;20091;-83
2023/12/09 07:07:50;;;;;;;27.10;7.93;;;;;;;4.43;100.00;100523.84;5334656;28;20027;-82
2023/12/09 07:10:22;;;;;;;26.45;8.00;;;;;;;4.45;100.00;100520.44;5337948;28;20024;-82
2023/12/09 07:12:53;;;;;;;21.83;8.20;;;;;;;4.48;100.00;100515.31;5338191;28;20032;-81
2023/12/09 07:15:26;;;;;;;23.83;7.97;;;;;;;4.53;100.00;100510.19;5332245;28;20095;-83
2023/12/09 07:17:57;;;;;;;27.88;7.85;;;;;;;4.61;100.00;100502.50;5328677;28;20027;-83
2023/12/09 07:20:28;;;;;;;26.57;7.93;;;;;;;4.71;100.00;100487.06;5327745;28;20042;-83
2023/12/09 07:23:00;;;;;;;29.83;8.03;;;;;;;4.70;100.00;100485.34;5328022;28;20027;-84
2023/12/09 07:25:31;;;;;;;28.13;8.27;;;;;;;4.78;100.00;100489.69;5308527;28;20028;-83
2023/12/09 07:28:03;;;;;;;23.00;8.87;;;;;;;4.81;100.00;100503.47;5326684;28;20067;-84
2023/12/09 07:30:34;;;;;;;27.87;9.00;;;;;;;4.93;100.00;100510.47;5326095;28;20031;-84
2023/12/09 07:33:06;;;;;;;27.77;7.27;;;;;;;4.92;100.00;100508.72;5326641;28;20367;-84
2023/12/09 07:35:39;;;;;;;28.63;7.50;;;;;;;4.97;100.00;100511.34;5325973;28;20023;-82
2023/12/09 07:38:10;;;;;;;24.77;7.28;;;;;;;5.00;100.00;100491.53;5325848;28;20118;-84
2023/12/09 07:40:43;;;;;;;24.05;8.02;;;;;;;5.06;100.00;100475.22;5325691;28;20467;-80
2023/12/09 07:43:14;;;;;;;21.53;7.20;;;;;;;5.10;100.00;100477.84;5325518;28;20032;-82
2023/12/09 07:45:45;;;;;;;30.70;7.37;;;;;;;5.14;100.00;100477.84;5325915;28;20367;-83
2023/12/09 07:48:17;;;;;;;26.77;7.53;;;;;;;5.10;100.00;100492.44;5325805;28;20028;-82
2023/12/09 07:50:48;;;;;;;23.83;7.00;;;;;;;5.15;100.00;100489.91;5325895;28;20039;-82
2023/12/09 07:53:20;;;;;;;24.63;7.13;;;;;;;5.19;100.00;100489.06;5325424;28;20111;-83
2023/12/09 07:55:51;;;;;;;29.73;7.20;;;;;;;5.23;100.00;100481.34;5325664;28;20032;-83
2023/12/09 07:58:23;;;;;;;15.03;5.07;;;;;;;5.25;100.00;100476.19;5325548;28;20391;-83
2023/12/09 08:00:58;;;;;;;26.33;7.03;;;;;;;5.28;100.00;100479.63;5325976;28;20475;-84
2023/12/09 08:03:32;;;;;;;21.13;6.53;;;;;;;5.34;100.00;100449.50;5328436;28;20035;-82
2023/12/09 08:06:04;;;;;;;22.75;6.10;;;;;;;5.37;100.00;100445.19;5329702;28;20031;-83
2023/12/09 08:08:35;;;;;;;21.20;5.70;;;;;;;5.41;100.00;100440.88;5329903;28;20607;-83
2023/12/09 08:11:07;;;;;;;17.73;5.07;;;;;;;5.48;100.00;100453.84;5330546;28;20314;-85
2023/12/09 08:13:38;;;;;;;21.70;5.97;;;;;;;5.49;100.00;100452.13;5330248;28;20059;-85
2023/12/09 08:16:10;;;;;;;20.37;6.17;;;;;;;5.53;100.00;100450.41;5329660;28;20067;-84
2023/12/09 08:18:42;;;;;;;19.50;5.27;;;;;;;5.54;100.00;100445.25;5311551;28;20066;-83
2023/12/09 08:21:14;;;;;;;22.92;6.00;;;;;;;5.57;100.00;100446.94;5329580;28;20031;-84
2023/12/09 08:23:45;;;;;;;23.17;6.03;;;;;;;5.60;100.00;100450.44;5329998;28;20084;-84
2023/12/09 08:26:20;;;;;;;16.83;5.23;;;;;;;5.65;100.00;100451.31;5329407;28;20028;-84
2023/12/09 08:28:51;;;;;;;21.05;6.68;;;;;;;5.67;100.00;100446.13;5329225;28;20023;-84
2023/12/09 08:31:23;;;;;;;18.30;4.90;;;;;;;5.69;100.00;100441.81;5329532;28;20146;-84
2023/12/09 08:33:54;;;;;;;17.03;4.67;;;;;;;5.71;100.00;100440.09;5330341;28;20081;-84
2023/12/09 08:36:25;;;;;;;22.30;5.47;;;;;;;5.77;100.00;100428.91;5330889;28;20024;-85
2023/12/09 08:38:58;;;;;;;16.73;4.67;;;;;;;5.81;100.00;100428.91;5329616;28;20027;-84
2023/12/09 08:41:29;;;;;;;20.00;5.00;;;;;;;5.84;100.00;100434.09;5329950;28;20058;-84
2023/12/09 08:44:03;;;;;;;18.27;6.63;;;;;;;5.85;100.00;100427.19;5329348;28;20036;-83
2023/12/09 08:46:35;;;;;;;14.48;4.47;;;;;;;5.93;100.00;100427.19;5329357;28;20159;-83
2023/12/09 08:49:07;;;;;;;14.47;5.40;;;;;;;5.96;100.00;100419.44;5329674;28;20027;-82
2023/12/09 08:51:48;;;;;;;17.50;4.77;;;;;;;6.01;100.00;100421.19;5329767;28;20035;-86
2023/12/09 08:54:19;;;;;;;12.57;4.88;;;;;;;6.05;100.00;100406.50;5311134;28;20112;-83
2023/12/09 08:56:50;;;;;;;13.33;4.70;;;;;;;6.06;100.00;100413.41;5329459;28;20063;-83
2023/12/09 08:59:21;;;;;;;20.53;4.33;;;;;;;6.08;100.00;100403.94;5330142;28;20043;-84
2023/12/09 09:01:53;;;;;;;11.40;4.20;;;;;;;6.07;100.00;100396.16;5329492;28;20032;-83
2023/12/09 09:04:24;;;;;;;18.77;4.50;;;;;;;6.09;100.00;100395.31;5312276;28;20374;-84
2023/12/09 09:06:56;;;;;;;17.70;4.83;;;;;;;6.13;100.00;100398.75;5312488;28;20085;-83
2023/12/09 09:09:27;;;;;;;13.10;4.00;;;;;;;6.16;100.00;100393.56;5331164;28;20028;-84
2023/12/09 09:11:58;;;;;;;14.20;4.40;;;;;;;6.14;100.00;100382.38;5335154;28;20028;-77
2023/12/09 09:14:30;;;;;;;12.87;3.57;;;;;;;6.17;100.00;100366.84;5338147;28;20038;-83
2023/12/09 09:17:05;;;;;;;13.43;4.47;;;;;;;6.17;100.00;100353.91;5341656;28;20099;-77
2023/12/09 09:19:36;;;;;;;15.18;4.93;;;;;;;6.22;100.00;100349.56;5345439;28;20068;-84
2023/12/09 09:22:08;;;;;;;18.27;4.00;;;;;;;6.30;100.00;100334.88;5344464;28;20081;-83
2023/12/09 09:24:39;;;;;;;14.60;4.63;;;;;;;6.27;100.00;100327.13;5323807;28;20036;-84
2023/12/09 09:27:10;;;;;;;16.73;4.07;;;;;;;6.18;100.00;100309.91;5331222;28;20095;-86
2023/12/09 09:29:43;;;;;;;16.53;3.60;;;;;;;6.20;100.00;100299.53;5310209;28;20027;-85
2023/12/09 09:32:16;;;;;;;12.30;3.65;;;;;;;6.23;100.00;100298.66;5328444;28;20031;-76
2023/12/09 09:34:47;;;;;;;15.20;4.03;;;;;;;6.32;100.00;100304.66;5329117;28;20085;-84
2023/12/09 09:37:18;;;;;;;12.63;3.70;;;;;;;6.39;100.00;100301.22;5328793;28;20035;-85
2023/12/09 09:39:50;;;;;;;14.70;3.83;;;;;;;6.49;100.00;100309.81;5328277;28;20036;-82
2023/12/09 09:42:37;;;;;;;12.30;4.17;;;;;;;6.58;100.00;100290.75;5328167;28;20048;-84
2023/12/09 09:45:08;;;;;;;13.43;3.65;;;;;;;6.63;100.00;100301.09;5328239;28;20069;-84
2023/12/09 09:47:41;;;;;;;14.37;3.60;;;;;;;6.67;100.00;100300.25;5310486;28;20474;-84
2023/12/09 09:50:16;;;;;;;13.27;3.83;;;;;;;6.70;100.00;100288.13;5329070;28;20032;-83
2023/12/09 09:52:48;;;;;;;17.33;4.38;;;;;;;6.73;100.00;100280.34;5327792;28;20028;-84
2023/12/09 09:55:21;;;;;;;14.80;3.70;;;;;;;6.77;100.00;100276.00;5327785;28;20414;-83
2023/12/09 09:57:53;;;;;;;13.30;3.30;;;;;;;6.79;100.00;100260.44;5328008;28;20040;-82
2023/12/09 10:00:28;;;;;;;17.55;4.55;;;;;;;6.80;100.00;100263.03;5327954;28;20383;-82
2023/12/09 10:03:00;;;;;;;18.13;3.72;;;;;;;6.85;100.00;100258.69;5326924;28;20043;-82
2023/12/09 10:05:31;;;;;;;10.40;3.33;;;;;;;6.89;100.00;100251.75;5309931;28;20360;-82
2023/12/09 10:08:03;;;;;;;11.77;3.67;;;;;;;6.92;100.00;100242.25;5327829;28;20474;-82
2023/12/09 10:10:35;;;;;;;12.33;3.20;;;;;;;6.89;100.00;100224.13;5327425;28;20035;-82
2023/12/09 10:13:07;;;;;;;18.67;4.82;;;;;;;6.93;100.00;100214.59;5327781;28;20076;-82
2023/12/09 10:15:38;;;;;;;12.90;4.25;;;;;;;6.90;100.00;100215.47;5327711;28;20032;-82
2023/12/09 10:18:15;;;;;;;12.20;3.50;;;;;;;6.92;100.00;100197.31;5327979;28;20047;-85
2023/12/09 10:20:47;;;;;;;14.63;3.58;;;;;;;6.93;100.00;100188.69;5327761;28;20038;-82
2023/12/09 10:23:19;;;;;;;17.33;3.97;;;;;;;6.95;100.00;100181.75;5328019;28;20039;-83
2023/12/09 10:25:51;;;;;;;12.75;4.60;;;;;;;6.97;100.00;100176.56;5308027;28;20054;-83
2023/12/09 10:28:23;;;;;;;9.17;3.47;;;;;;;6.94;100.00;100167.94;5327365;28;20461;-81
2023/12/09 10:30:55;;;;;;;10.63;3.60;;;;;;;6.96;100.00;100146.34;5327944;28;20055;-80
2023/12/09 10:33:31;;;;;;;13.90;3.20;;;;;;;7.02;100.00;100148.88;5334242;28;20035;-82
2023/12/09 10:36:02;;;;;;;12.63;3.47;;;;;;;7.06;100.00;100127.25;5338432;28;20110;-81
2023/12/09 10:38:34;;;;;;;17.37;4.20;;;;;;;7.09;100.00;100137.59;5338665;28;20132;-83
2023/12/09 10:41:05;;;;;;;13.97;3.87;;;;;;;7.10;100.00;100136.72;5318656;28;20062;-82
2023/12/09 10:43:37;;;;;;;10.87;3.20;;;;;;;7.09;100.00;100122.88;5333912;28;20506;-81
2023/12/09 10:46:11;;;;;;;17.20;3.90;;;;;;;7.08;100.00;100115.13;5331317;28;20053;-82
2023/12/09 10:48:42;;;;;;;16.13;4.30;;;;;;;7.09;100.00;100091.78;5336630;28;20095;-78
2023/12/09 10:51:14;;;;;;;11.67;3.37;;;;;;;7.01;100.00;100092.75;5350257;28;20020;-80
2023/12/09 10:53:45;;;;;;;9.83;3.90;;;;;;;6.93;100.00;100083.28;5349237;28;20035;-80
2023/12/09 10:56:17;;;;;;;12.57;3.30;;;;;;;6.84;100.00;100052.31;5335133;28;20479;-84
2023/12/09 10:58:50;;;;;;;13.68;3.70;;;;;;;6.79;100.00;100045.44;5330777;28;20054;-83
2023/12/09 11:01:22;;;;;;;15.10;3.97;;;;;;;6.76;100.00;100035.97;5330807;28;20471;-83
2023/12/09 11:03:56;;;;;;;10.98;3.08;;;;;;;6.69;100.00;100018.78;5332859;28;20031;-83
2023/12/09 11:06:33;;;;;;;17.15;3.17;;;;;;;6.72;100.00;100023.91;5311930;28;20042;-81
2023/12/09 11:09:06;;;;;;;9.32;3.92;;;;;;;6.73;100.00;100034.28;5312687;28;20028;-83
2023/12/09 11:11:37;;;;;;;11.45;2.97;;;;;;;6.75;100.00;100013.53;5331247;28;20024;-81
2023/12/09 11:14:09;;;;;;;17.33;2.87;;;;;;;6.74;100.00;99991.09;5329830;28;20036;-83
2023/12/09 11:16:46;;;;;;;10.63;3.17;;;;;;;6.70;100.00;99987.69;5330004;28;20031;-83
2023/12/09 11:19:18;;;;;;;13.00;2.78;;;;;;;6.66;100.00;99975.63;5329986;28;20036;-82
2023/12/09 11:21:49;;;;;;;10.23;2.78;;;;;;;6.64;100.00;99961.84;5329280;28;20495;-82
2023/12/09 11:24:30;;;;;;;15.23;3.13;;;;;;;6.65;100.00;99960.97;5330351;28;20032;-83
2023/12/09 11:27:01;;;;;;;11.50;2.78;;;;;;;6.69;100.00;99956.63;5330323;28;20023;-78
2023/12/09 11:29:33;;;;;;;11.37;3.23;;;;;;;6.71;100.00;99939.31;5330451;28;20110;-82
2023/12/09 11:32:07;;;;;;;15.93;3.30;;;;;;;6.73;100.00;99930.66;5330173;28;20495;-81
2023/12/09 11:34:40;;;;;;;12.20;3.45;;;;;;;6.73;100.00;99909.09;5331292;28;20080;-83